createdAt,value
2022-10-26T05:12:09.721Z,973.13
2022-10-26T05:13:09.743Z,973.15
2022-10-26T05:14:09.784Z,973.25
2022-10-26T05:15:09.826Z,973.26
2022-10-26T05:16:09.876Z,973.26
2022-10-26T05:17:09.943Z,973.30
2022-10-26T05:18:09.993Z,973.24
2022-10-26T05:19:10.009Z,973.25
2022-10-26T05:20:10.057Z,973.25
2022-10-26T05:21:10.104Z,973.26
2022-10-26T05:22:10.151Z,973.30
2022-10-26T05:23:10.221Z,973.30
2022-10-26T05:24:12.480Z,973.32
2022-10-26T05:25:11.195Z,973.38
2022-10-26T05:26:10.344Z,973.40
2022-10-26T05:27:10.390Z,973.45
2022-10-26T05:28:10.440Z,973.48
2022-10-26T05:29:10.513Z,973.51
2022-10-26T05:30:10.534Z,973.52
2022-10-26T05:31:11.201Z,973.51
2022-10-26T05:32:10.629Z,973.56
2022-10-26T05:33:10.681Z,973.59
2022-10-26T05:34:10.752Z,973.57
2022-10-26T05:35:10.776Z,973.54
2022-10-26T05:36:10.825Z,973.49
2022-10-26T05:37:10.874Z,973.53
2022-10-26T05:38:11.040Z,973.49
2022-10-26T05:39:11.083Z,973.53
2022-10-26T05:40:11.736Z,973.55
2022-10-26T05:41:11.112Z,973.52
2022-10-26T05:42:11.162Z,973.54
2022-10-26T05:43:11.207Z,973.52
2022-10-26T05:44:11.331Z,973.52
2022-10-26T05:45:11.308Z,973.55
2022-10-26T05:46:11.321Z,973.53
2022-10-26T05:47:11.451Z,973.53
2022-10-26T05:48:11.444Z,973.62
2022-10-26T05:49:11.494Z,973.59
2022-10-26T05:50:11.543Z,973.57
2022-10-26T05:51:11.659Z,973.51
2022-10-26T05:52:11.626Z,973.50
2022-10-26T05:53:11.693Z,973.48
2022-10-26T05:54:13.909Z,973.45
2022-10-26T05:55:11.873Z,973.39
2022-10-26T05:56:11.897Z,973.36
2022-10-26T05:57:11.901Z,973.33
2022-10-26T05:58:11.916Z,973.34
2022-10-26T05:59:12.011Z,973.40
2022-10-26T06:00:12.052Z,973.41
2022-10-26T06:01:12.184Z,973.42
2022-10-26T06:02:12.214Z,973.32
2022-10-26T06:03:12.203Z,973.27
2022-10-26T06:04:12.213Z,973.23
2022-10-26T06:05:12.246Z,973.17
2022-10-26T06:06:12.324Z,973.11
2022-10-26T06:07:12.357Z,973.07
2022-10-26T06:08:12.514Z,973.13
2022-10-26T06:09:12.460Z,973.08
2022-10-26T06:10:12.518Z,973.11
2022-10-26T06:11:12.567Z,973.14
2022-10-26T06:12:14.437Z,973.13
2022-10-26T06:13:12.752Z,973.15
2022-10-26T06:14:12.798Z,973.16
2022-10-26T06:15:13.708Z,973.19
2022-10-26T06:16:12.765Z,973.24
2022-10-26T06:17:12.811Z,973.22
2022-10-26T06:18:12.895Z,973.24
2022-10-26T06:19:12.908Z,973.30
2022-10-26T06:21:13.060Z,973.25
2022-10-26T06:22:13.060Z,973.33
2022-10-26T06:23:13.134Z,973.39
2022-10-26T06:24:13.158Z,973.39
2022-10-26T06:25:13.760Z,973.46
2022-10-26T06:26:13.288Z,973.40
2022-10-26T06:27:17.009Z,973.44
2022-10-26T06:28:13.442Z,973.41
2022-10-26T06:29:13.454Z,973.36
2022-10-26T06:30:13.479Z,973.35
2022-10-26T06:31:13.545Z,973.33
2022-10-26T06:32:13.589Z,973.26
2022-10-26T06:33:24.961Z,973.24
2022-10-26T06:34:13.686Z,973.26
2022-10-26T06:35:13.726Z,973.28
2022-10-26T06:36:13.848Z,973.30
2022-10-26T06:37:13.821Z,973.38
2022-10-26T06:38:13.972Z,973.34
2022-10-26T06:39:13.927Z,973.30
2022-10-26T06:40:13.978Z,973.35
2022-10-26T06:41:14.005Z,973.31
2022-10-26T06:42:14.045Z,973.30
2022-10-26T06:43:14.176Z,973.28
2022-10-26T06:44:14.236Z,973.35
2022-10-26T06:46:15.265Z,973.38
2022-10-26T06:47:14.302Z,973.40
2022-10-26T06:48:15.251Z,973.44
2022-10-26T06:49:14.472Z,973.47
2022-10-26T06:50:15.257Z,973.44
2022-10-26T06:51:14.514Z,973.48
2022-10-26T06:52:14.582Z,973.43
2022-10-26T06:53:14.617Z,973.41
2022-10-26T06:54:15.238Z,973.45
2022-10-26T06:55:14.710Z,973.49
2022-10-26T06:56:14.769Z,973.51
2022-10-26T06:57:14.826Z,973.52
2022-10-26T06:58:15.752Z,973.51
2022-10-26T06:59:14.901Z,973.49
2022-10-26T07:00:15.802Z,973.53
2022-10-26T07:01:15.770Z,973.58
2022-10-26T07:02:15.247Z,973.61
2022-10-26T07:03:15.103Z,973.65
2022-10-26T07:04:15.766Z,973.67
2022-10-26T07:05:15.760Z,973.71
2022-10-26T07:06:15.315Z,973.67
2022-10-26T07:07:16.231Z,973.67
2022-10-26T07:08:16.279Z,973.65
2022-10-26T07:09:15.344Z,973.63
2022-10-26T07:10:15.447Z,973.63
2022-10-26T07:11:16.234Z,973.67
2022-10-26T07:12:15.540Z,973.74
2022-10-26T07:13:16.265Z,973.78
2022-10-26T07:14:15.610Z,973.81
2022-10-26T07:15:16.232Z,973.83
2022-10-26T07:16:15.714Z,973.90
2022-10-26T07:17:15.772Z,973.92
2022-10-26T07:18:16.756Z,973.93
2022-10-26T07:19:16.057Z,974.01
2022-10-26T07:20:15.882Z,974.06
2022-10-26T07:21:15.951Z,974.08
2022-10-26T07:22:16.004Z,974.14
2022-10-26T07:23:16.049Z,974.13
2022-10-26T07:24:16.077Z,974.16
2022-10-26T07:25:16.127Z,974.19
2022-10-26T07:26:16.175Z,974.17
2022-10-26T07:27:16.222Z,974.17
2022-10-26T07:28:16.294Z,974.17
2022-10-26T07:29:16.316Z,974.12
2022-10-26T07:30:16.368Z,974.18
2022-10-26T07:31:16.415Z,974.26
2022-10-26T07:32:16.490Z,974.23
2022-10-26T07:33:16.537Z,974.26
2022-10-26T07:34:16.567Z,974.25
2022-10-26T07:35:16.619Z,974.29
2022-10-26T07:36:16.681Z,974.36
2022-10-26T07:37:16.734Z,974.41
2022-10-26T07:38:16.759Z,974.43
2022-10-26T07:39:17.830Z,974.42
2022-10-26T07:40:16.893Z,974.37
2022-10-26T07:41:16.909Z,974.36
2022-10-26T07:42:16.980Z,974.39
2022-10-26T07:43:17.004Z,974.35
2022-10-26T07:44:17.053Z,974.29
2022-10-26T07:45:17.103Z,974.33
2022-10-26T07:46:17.158Z,974.35
2022-10-26T07:47:17.235Z,974.35
2022-10-26T07:48:17.247Z,974.41
2022-10-26T07:49:19.429Z,974.48
2022-10-26T07:50:17.345Z,974.53
2022-10-26T07:51:17.433Z,974.49
2022-10-26T07:52:17.442Z,974.45
2022-10-26T07:53:17.514Z,974.39
2022-10-26T07:54:17.545Z,974.41
2022-10-26T07:55:17.589Z,974.43
2022-10-26T07:56:17.666Z,974.44
2022-10-26T07:57:17.697Z,974.46
2022-10-26T07:58:17.737Z,974.49
2022-10-26T07:59:17.815Z,974.43
2022-10-26T08:00:17.850Z,974.48
2022-10-26T08:01:18.039Z,974.55
2022-10-26T08:02:17.936Z,974.59
2022-10-26T08:03:17.983Z,974.65
2022-10-26T08:04:18.056Z,974.74
2022-10-26T08:05:18.207Z,974.77
2022-10-26T08:06:18.128Z,974.79
2022-10-26T08:07:18.179Z,974.73
2022-10-26T08:08:18.267Z,974.73
2022-10-26T08:09:18.279Z,974.72
2022-10-26T08:10:18.361Z,974.77
2022-10-26T08:11:18.410Z,974.80
2022-10-26T08:12:18.584Z,974.77
2022-10-26T08:13:18.528Z,974.74
2022-10-26T08:14:18.558Z,974.69
2022-10-26T08:15:18.614Z,974.62
2022-10-26T08:16:18.665Z,974.60
2022-10-26T08:17:18.782Z,974.66
2022-10-26T08:18:18.835Z,974.64
2022-10-26T08:19:18.824Z,974.69
2022-10-26T08:20:18.866Z,974.67
2022-10-26T08:21:22.122Z,974.66
2022-10-26T08:22:18.973Z,974.65
2022-10-26T08:23:19.126Z,974.64
2022-10-26T08:24:19.039Z,974.66
2022-10-26T08:25:21.405Z,974.64
2022-10-26T08:26:19.149Z,974.69
2022-10-26T08:27:19.154Z,974.70
2022-10-26T08:28:19.246Z,974.67
2022-10-26T08:29:19.301Z,974.64
2022-10-26T08:30:19.342Z,974.69
2022-10-26T08:31:19.414Z,974.76
2022-10-26T08:32:19.447Z,974.83
2022-10-26T08:33:19.492Z,974.90
2022-10-26T08:34:19.556Z,974.98
2022-10-26T08:35:19.599Z,974.99
2022-10-26T08:36:19.724Z,975.03
2022-10-26T08:37:19.657Z,975.03
2022-10-26T08:38:19.719Z,975.07
2022-10-26T08:39:19.776Z,974.99
2022-10-26T08:40:19.821Z,974.83
2022-10-26T08:41:19.952Z,974.76
2022-10-26T08:42:19.927Z,974.82
2022-10-26T08:43:20.819Z,974.94
2022-10-26T08:44:20.089Z,975.05
2022-10-26T08:45:23.202Z,975.10
2022-10-26T08:46:20.087Z,975.12
2022-10-26T08:47:20.190Z,975.07
2022-10-26T08:48:20.250Z,975.00
2022-10-26T08:49:20.265Z,975.00
2022-10-26T08:50:20.495Z,975.02
2022-10-26T08:51:20.391Z,975.02
2022-10-26T09:27:38.789Z,974.84
2022-10-26T09:28:38.796Z,974.84
2022-10-26T09:29:38.842Z,974.85
2022-10-26T09:30:38.885Z,974.88
2022-10-26T09:31:42.345Z,974.88
2022-10-26T09:32:38.979Z,974.90
2022-10-26T09:33:39.028Z,974.92
2022-10-26T09:34:39.085Z,974.90
2022-10-26T09:35:39.128Z,974.88
2022-10-26T09:36:39.208Z,974.94
2022-10-26T09:37:39.255Z,974.93
2022-10-26T09:38:40.035Z,974.88
2022-10-26T09:39:39.327Z,974.91
2022-10-26T09:40:40.073Z,975.00
2022-10-26T09:41:39.421Z,975.06
2022-10-26T09:42:39.498Z,974.99
2022-10-26T09:43:39.563Z,974.97
2022-10-26T09:44:39.574Z,975.05
2022-10-26T09:45:40.347Z,975.14
2022-10-26T09:46:39.697Z,975.17
2022-10-26T09:47:39.758Z,975.19
2022-10-26T09:48:39.803Z,975.21
2022-10-26T09:49:39.823Z,975.29
2022-10-26T09:50:39.875Z,975.28
2022-10-26T09:51:39.938Z,975.30
2022-10-26T09:52:39.975Z,975.28
2022-10-26T09:53:40.055Z,975.27
2022-10-26T09:54:40.114Z,975.22
2022-10-26T09:55:40.859Z,975.22
2022-10-26T09:56:40.855Z,975.27
2022-10-26T09:57:40.229Z,975.31
2022-10-26T09:58:40.281Z,975.34
2022-10-26T09:59:40.361Z,975.36
2022-10-26T10:00:41.354Z,975.36
2022-10-26T10:01:42.292Z,975.44
2022-10-26T10:02:41.375Z,975.45
2022-10-26T10:03:41.355Z,975.42
2022-10-26T10:04:40.613Z,975.49
2022-10-26T10:05:55.867Z,975.45
2022-10-26T10:06:40.733Z,975.48
2022-10-26T10:07:40.746Z,975.51
2022-10-26T10:08:41.358Z,975.59
2022-10-26T10:09:41.360Z,975.59
2022-10-26T10:10:40.935Z,975.59
2022-10-26T10:11:41.864Z,975.58
2022-10-26T10:12:41.008Z,975.62
2022-10-26T10:13:41.858Z,975.61
2022-10-26T10:14:41.865Z,975.63
2022-10-26T10:15:41.186Z,975.60
2022-10-26T10:16:41.222Z,975.61
2022-10-26T10:17:41.303Z,975.62
2022-10-26T10:18:41.356Z,975.51
2022-10-26T10:19:42.364Z,975.58
2022-10-26T10:20:42.373Z,975.61
2022-10-26T10:21:41.530Z,975.58
2022-10-26T10:22:42.361Z,975.60
2022-10-26T10:23:42.364Z,975.58
2022-10-26T10:24:42.364Z,975.58
2022-10-26T10:25:42.363Z,975.61
2022-10-26T10:26:41.793Z,975.66
2022-10-26T10:27:41.813Z,975.69
2022-10-26T10:28:42.374Z,975.67
2022-10-26T10:29:42.878Z,975.72
2022-10-26T10:30:42.869Z,975.70
2022-10-26T10:31:42.047Z,975.72
2022-10-26T10:32:42.082Z,975.76
2022-10-26T10:33:42.161Z,975.78
2022-10-26T10:34:42.871Z,975.80
2022-10-26T10:35:42.871Z,975.80
2022-10-26T10:36:42.296Z,975.79
2022-10-26T10:37:42.872Z,975.85
2022-10-26T10:38:42.429Z,975.80
2022-10-26T10:39:42.458Z,975.77
2022-10-26T10:40:43.376Z,975.72
2022-10-26T10:41:43.373Z,975.78
2022-10-26T10:42:43.372Z,975.77
2022-10-26T10:43:42.703Z,975.80
2022-10-26T10:44:43.377Z,975.83
2022-10-26T10:45:42.784Z,975.82
2022-10-26T10:46:42.845Z,975.82
2022-10-26T10:47:42.903Z,975.89
2022-10-26T10:48:43.058Z,975.84
2022-10-26T10:49:43.042Z,975.87
2022-10-26T10:50:43.241Z,975.86
2022-10-26T10:51:43.165Z,975.86
2022-10-26T10:52:43.927Z,975.95
2022-10-26T10:53:43.943Z,975.89
2022-10-26T10:54:43.903Z,975.85
2022-10-26T10:55:43.467Z,975.79
2022-10-26T10:56:44.426Z,975.86
2022-10-26T10:57:43.555Z,975.84
2022-10-26T10:58:43.555Z,975.84
2022-10-26T10:59:44.441Z,975.87
2022-10-26T11:00:44.436Z,975.88
2022-10-26T11:01:44.534Z,975.87
2022-10-26T11:02:43.857Z,975.88
2022-10-26T11:03:44.434Z,975.85
2022-10-26T11:04:43.889Z,975.82
2022-10-26T11:05:44.954Z,975.92
2022-10-26T11:06:43.999Z,975.89
2022-10-26T11:07:44.122Z,975.88
2022-10-26T11:08:44.115Z,975.87
2022-10-26T11:09:44.232Z,975.90
2022-10-26T11:10:44.258Z,975.89
2022-10-26T11:11:45.758Z,975.95
2022-10-26T11:12:45.001Z,975.94
2022-10-26T11:13:44.946Z,975.93
2022-10-26T11:14:46.377Z,975.95
2022-10-26T11:15:44.487Z,975.99
2022-10-26T11:16:44.540Z,976.02
2022-10-26T11:17:44.593Z,976.07
2022-10-26T11:18:44.613Z,976.09
2022-10-26T11:19:45.395Z,976.09
2022-10-26T11:20:45.479Z,976.09
2022-10-26T11:21:45.394Z,976.07
2022-10-26T11:22:44.892Z,976.09
2022-10-26T11:23:45.394Z,976.09
2022-10-26T11:24:45.896Z,976.12
2022-10-26T11:25:45.020Z,976.14
2022-10-26T11:26:46.389Z,976.15
2022-10-26T11:27:45.118Z,976.17
2022-10-26T11:28:45.901Z,976.20
2022-10-26T11:29:48.590Z,976.18
2022-10-26T11:30:45.903Z,976.19
2022-10-26T11:31:45.326Z,976.16
2022-10-26T11:32:45.400Z,976.22
2022-10-26T11:33:45.453Z,976.17
2022-10-26T11:34:46.398Z,976.14
2022-10-26T11:35:46.398Z,976.17
2022-10-26T11:36:45.601Z,976.17
2022-10-26T11:37:45.687Z,976.22
2022-10-26T11:38:56.393Z,976.28
2022-10-26T11:39:45.784Z,976.30
2022-10-26T11:40:46.456Z,976.28
2022-10-26T11:41:46.457Z,976.32
2022-10-26T11:42:46.051Z,976.31
2022-10-26T11:43:46.966Z,976.32
2022-10-26T11:44:50.411Z,976.29
2022-10-26T11:45:46.961Z,976.32
2022-10-26T11:46:46.224Z,976.33
2022-10-26T11:47:46.276Z,976.35
2022-10-26T11:48:46.939Z,976.29
2022-10-26T11:49:47.001Z,976.23
2022-10-26T11:50:46.951Z,976.24
2022-10-26T11:51:46.586Z,976.25
2022-10-26T11:52:46.626Z,976.21
2022-10-26T11:53:47.446Z,976.25
2022-10-26T11:54:46.745Z,976.31
2022-10-26T11:55:47.415Z,976.30
2022-10-26T11:56:46.750Z,976.37
2022-10-26T11:57:46.810Z,976.25
2022-10-26T11:58:46.866Z,976.30
2022-10-26T11:59:46.953Z,976.30
2022-10-26T12:00:47.917Z,976.38
2022-10-26T12:01:47.939Z,976.37
2022-10-26T12:02:47.119Z,976.42
2022-10-26T12:03:47.157Z,976.41
2022-10-26T12:04:47.919Z,976.46
2022-10-26T12:05:47.918Z,976.45
2022-10-26T12:06:47.374Z,976.40
2022-10-26T12:07:48.169Z,976.44
2022-10-26T12:08:47.474Z,976.48
2022-10-26T12:09:48.423Z,976.49
2022-10-26T12:10:48.484Z,976.53
2022-10-26T12:11:48.451Z,976.55
2022-10-26T12:12:47.872Z,976.55
2022-10-26T12:13:47.856Z,976.55
2022-10-26T12:14:47.855Z,976.50
2022-10-26T12:16:04.368Z,976.52
2022-10-26T12:16:47.967Z,976.48
2022-10-26T12:17:49.218Z,976.46
2022-10-26T12:18:55.576Z,976.45
2022-10-26T12:19:48.986Z,976.45
2022-10-26T12:20:48.948Z,976.48
2022-10-26T12:21:48.957Z,976.42
2022-10-26T12:22:49.137Z,976.39
2022-10-26T12:23:51.748Z,976.41
2022-10-26T12:24:48.969Z,976.35
2022-10-26T12:25:48.933Z,976.37
2022-10-26T12:26:48.518Z,976.35
2022-10-26T12:28:52.344Z,976.29
2022-10-26T12:29:49.484Z,976.25
2022-10-26T12:30:48.756Z,976.23
2022-10-26T12:31:49.441Z,976.22
2022-10-26T12:32:49.115Z,976.26
2022-10-26T12:33:49.434Z,976.25
2022-10-26T12:34:48.931Z,976.23
2022-10-26T12:35:49.010Z,976.23
2022-10-26T12:36:49.039Z,976.23
2022-10-26T12:37:50.202Z,976.24
2022-10-26T12:38:49.145Z,976.21
2022-10-26T12:39:49.943Z,976.26
2022-10-26T12:40:49.292Z,976.31
2022-10-26T12:41:49.309Z,976.29
2022-10-26T12:42:49.365Z,976.27
2022-10-26T12:43:49.948Z,976.27
2022-10-26T12:44:49.470Z,976.30
2022-10-26T12:45:49.573Z,976.26
2022-10-26T12:46:50.451Z,976.34
2022-10-26T12:47:49.870Z,976.29
2022-10-26T12:48:50.443Z,976.34
2022-10-26T12:49:50.448Z,976.29
2022-10-26T12:50:50.444Z,976.32
2022-10-26T12:51:49.886Z,976.33
2022-10-26T12:52:50.890Z,976.32
2022-10-26T12:53:49.973Z,976.35
2022-10-26T12:54:50.947Z,976.33
2022-10-26T12:55:50.089Z,976.35
2022-10-26T12:56:50.104Z,976.32
2022-10-26T12:57:50.158Z,976.35
2022-10-26T12:58:50.950Z,976.34
2022-10-26T12:59:50.263Z,976.34
2022-10-26T13:00:50.341Z,976.32
2022-10-26T13:02:50.753Z,976.32
2022-10-26T13:03:51.449Z,976.31
2022-10-26T13:04:50.524Z,976.37
2022-10-26T13:05:50.576Z,976.34
2022-10-26T13:06:51.452Z,976.33
2022-10-26T13:07:50.706Z,976.32
2022-10-26T13:08:55.134Z,976.29
2022-10-26T13:09:51.450Z,976.32
2022-10-26T13:10:51.449Z,976.34
2022-10-26T13:11:50.898Z,976.35
2022-10-26T13:12:51.400Z,976.35
2022-10-26T13:13:51.952Z,976.36
2022-10-26T13:14:51.052Z,976.37
2022-10-26T13:15:51.134Z,976.37
2022-10-26T13:16:51.195Z,976.40
2022-10-26T13:17:51.232Z,976.36
2022-10-26T13:18:51.955Z,976.40
2022-10-26T13:19:51.958Z,976.38
2022-10-26T13:20:51.957Z,976.31
2022-10-26T13:21:51.421Z,976.33
2022-10-26T13:22:51.805Z,976.32
2022-10-26T13:23:51.554Z,976.27
2022-10-26T13:24:52.460Z,976.30
2022-10-26T13:26:52.461Z,976.30
2022-10-26T13:27:52.027Z,976.36
2022-10-26T13:28:51.818Z,976.36
2022-10-26T13:29:51.835Z,976.31
2022-10-26T13:30:52.465Z,976.36
2022-10-26T13:31:51.942Z,976.37
2022-10-26T13:32:52.963Z,976.34
2022-10-26T13:33:52.076Z,976.38
2022-10-26T13:34:52.097Z,976.35
2022-10-26T13:35:52.963Z,976.36
2022-10-26T13:36:52.963Z,976.34
2022-10-26T13:37:53.347Z,976.36
2022-10-26T13:38:52.331Z,976.38
2022-10-26T13:39:52.357Z,976.38
2022-10-26T13:40:52.965Z,976.36
2022-10-26T13:41:52.463Z,976.36
2022-10-26T13:42:53.471Z,976.37
2022-10-26T13:43:53.473Z,976.36
2022-10-26T13:44:52.658Z,976.35
2022-10-26T13:45:53.469Z,976.35
2022-10-26T13:46:52.716Z,976.33
2022-10-26T13:47:52.971Z,976.34
2022-10-26T13:48:53.467Z,976.32
2022-10-26T13:49:52.900Z,976.31
2022-10-26T13:50:53.545Z,976.33
2022-10-26T13:51:52.974Z,976.33
2022-10-26T13:52:53.327Z,976.35
2022-10-26T13:53:53.972Z,976.34
2022-10-26T13:54:53.170Z,976.31
2022-10-26T13:55:53.978Z,976.30
2022-10-26T13:56:53.240Z,976.32
2022-10-26T13:57:53.283Z,976.33
2022-10-26T13:58:53.977Z,976.30
2022-10-26T13:59:53.411Z,976.33
2022-10-26T14:00:53.515Z,976.28
2022-10-26T14:01:54.559Z,976.31
2022-10-26T14:02:54.475Z,976.31
2022-10-26T14:03:53.591Z,976.33
2022-10-26T14:04:53.680Z,976.31
2022-10-26T14:05:54.477Z,976.34
2022-10-26T14:06:53.770Z,976.36
2022-10-26T14:07:56.845Z,976.32
2022-10-26T14:08:54.476Z,976.36
2022-10-26T14:09:54.494Z,976.36
2022-10-26T14:10:53.983Z,976.33
2022-10-26T14:11:54.981Z,976.33
2022-10-26T14:12:54.148Z,976.35
2022-10-26T14:13:54.112Z,976.34
2022-10-26T14:14:54.187Z,976.32
2022-10-26T14:15:55.005Z,976.33
2022-10-26T14:16:54.295Z,976.32
2022-10-26T14:17:54.979Z,976.35
2022-10-26T14:18:54.374Z,976.36
2022-10-26T14:19:54.417Z,976.33
2022-10-26T14:20:54.980Z,976.33
2022-10-26T14:21:54.555Z,976.35
2022-10-26T14:22:55.483Z,976.39
2022-10-26T14:23:55.488Z,976.33
2022-10-26T14:25:59.072Z,976.32
2022-10-26T14:26:54.805Z,976.33
2022-10-26T14:27:54.858Z,976.30
2022-10-26T14:28:55.484Z,976.32
2022-10-26T14:30:20.336Z,976.31
2022-10-26T14:30:54.983Z,976.32
2022-10-26T14:31:55.065Z,976.34
2022-10-26T14:32:55.986Z,976.31
2022-10-26T14:33:56.002Z,976.32
2022-10-26T14:34:55.191Z,976.34
2022-10-26T14:35:55.997Z,976.30
2022-10-26T14:36:55.321Z,976.29
2022-10-26T14:37:55.369Z,976.31
2022-10-26T14:38:55.395Z,976.32
2022-10-26T14:39:55.444Z,976.28
2022-10-26T14:40:56.503Z,976.29
2022-10-26T14:41:55.575Z,976.30
2022-10-26T14:42:55.646Z,976.32
2022-10-26T14:43:56.493Z,976.32
2022-10-26T14:44:55.705Z,976.32
2022-10-26T14:45:56.492Z,976.31
2022-10-26T14:46:56.496Z,976.30
2022-10-26T14:47:55.883Z,976.31
2022-10-26T14:48:55.932Z,976.29
2022-10-26T14:49:56.547Z,976.28
2022-10-26T14:50:56.997Z,976.29
2022-10-26T14:51:56.994Z,976.30
2022-10-26T14:52:56.138Z,976.28
2022-10-26T14:53:56.197Z,976.26
2022-10-26T14:54:56.219Z,976.27
2022-10-26T14:55:56.994Z,976.28
2022-10-26T14:56:56.996Z,976.30
2022-10-26T14:57:57.003Z,976.27
2022-10-26T14:58:56.456Z,976.33
2022-10-26T14:59:56.477Z,976.28
2022-10-26T15:00:57.572Z,976.33
2022-10-26T15:01:56.701Z,976.32
2022-10-26T15:02:57.508Z,976.35
2022-10-26T15:03:56.724Z,976.35
2022-10-26T15:04:56.730Z,976.36
2022-10-26T15:05:57.503Z,976.35
2022-10-26T15:06:57.506Z,976.35
2022-10-26T15:07:56.893Z,976.32
2022-10-26T15:08:57.499Z,976.39
2022-10-26T15:09:57.018Z,976.42
2022-10-26T15:11:18.066Z,976.39
2022-10-26T15:11:57.089Z,976.39
2022-10-26T15:12:58.011Z,976.40
2022-10-26T15:13:57.192Z,976.48
2022-10-26T15:14:57.274Z,976.50
2022-10-26T15:15:58.562Z,976.47
2022-10-26T15:16:58.008Z,976.45
2022-10-26T15:17:57.422Z,976.45
2022-10-26T15:18:58.007Z,976.50
2022-10-26T15:19:57.524Z,976.49
2022-10-26T15:20:57.597Z,976.46
2022-10-26T15:21:57.598Z,976.47
2022-10-26T15:22:58.508Z,976.49
2022-10-26T15:23:57.702Z,976.47
2022-10-26T15:24:58.516Z,976.48
2022-10-26T15:25:57.827Z,976.49
2022-10-26T15:26:57.862Z,976.48
2022-10-26T15:27:57.904Z,976.49
2022-10-26T15:28:57.955Z,976.54
2022-10-26T15:29:58.006Z,976.53
2022-10-26T15:31:00.589Z,976.53
2022-10-26T15:31:58.176Z,976.54
2022-10-26T15:32:58.161Z,976.54
2022-10-26T15:33:59.012Z,976.57
2022-10-26T15:34:58.262Z,976.57
2022-10-26T15:35:58.333Z,976.58
2022-10-26T15:36:58.409Z,976.57
2022-10-26T15:37:58.412Z,976.59
2022-10-26T15:38:58.461Z,976.60
2022-10-26T15:39:58.526Z,976.64
2022-10-26T15:40:58.575Z,976.63
2022-10-26T15:41:58.657Z,976.66
2022-10-26T15:42:58.708Z,976.68
2022-10-26T15:43:58.726Z,976.64
2022-10-26T15:44:58.771Z,976.65
2022-10-26T15:45:58.846Z,976.62
2022-10-26T15:46:58.873Z,976.61
2022-10-26T15:47:58.926Z,976.60
2022-10-26T15:48:59.518Z,976.60
2022-10-26T15:50:00.160Z,976.65
2022-10-26T15:50:59.105Z,976.65
2022-10-26T15:51:59.157Z,976.68
2022-10-26T15:52:59.177Z,976.74
2022-10-26T15:53:59.227Z,976.76
2022-10-26T15:54:59.280Z,976.78
2022-10-26T15:55:59.360Z,976.78
2022-10-26T15:56:59.431Z,976.79
2022-10-26T15:57:59.437Z,976.79
2022-10-26T15:59:00.025Z,976.78
2022-10-26T15:59:59.647Z,976.76
2022-10-26T16:01:00.583Z,976.78
2022-10-26T16:01:59.769Z,976.79
2022-10-26T16:02:59.683Z,976.80
2022-10-26T16:03:59.729Z,976.80
2022-10-26T16:04:59.790Z,976.79
2022-10-26T16:05:59.905Z,976.84
2022-10-26T16:07:00.524Z,976.78
2022-10-26T16:07:59.937Z,976.81
2022-10-26T16:09:00.020Z,976.83
2022-10-26T16:10:00.042Z,976.78
2022-10-26T16:11:01.023Z,976.79
2022-10-26T16:12:00.136Z,976.82
2022-10-26T16:13:01.025Z,976.82
2022-10-26T16:14:03.506Z,976.81
2022-10-26T16:15:05.597Z,976.84
2022-10-26T16:16:00.341Z,976.84
2022-10-26T16:17:00.420Z,976.83
2022-10-26T16:18:00.448Z,976.86
2022-10-26T16:20:02.278Z,976.84
2022-10-26T16:21:01.530Z,976.83
2022-10-26T16:22:00.720Z,976.82
2022-10-26T16:23:00.688Z,976.86
2022-10-26T16:24:00.741Z,976.88
2022-10-26T16:25:00.788Z,976.88
2022-10-26T16:26:00.839Z,976.96
2022-10-26T16:27:00.923Z,976.93
2022-10-26T16:28:00.938Z,976.98
2022-10-26T16:29:00.991Z,977.00
2022-10-26T16:30:01.044Z,976.98
2022-10-26T16:31:01.086Z,977.00
2022-10-26T16:32:01.171Z,976.97
2022-10-26T16:33:01.189Z,977.01
2022-10-26T16:34:03.987Z,977.01
2022-10-26T16:35:01.289Z,977.01
2022-10-26T16:36:01.352Z,977.05
2022-10-26T16:37:01.412Z,977.02
2022-10-26T16:38:01.439Z,977.06
2022-10-26T16:40:01.541Z,977.10
2022-10-26T16:41:01.627Z,977.10
2022-10-26T16:42:01.636Z,977.12
2022-10-26T16:43:01.691Z,977.15
2022-10-26T16:44:01.737Z,977.15
2022-10-26T16:45:02.945Z,977.17
2022-10-26T16:46:01.862Z,977.19
2022-10-26T16:47:01.888Z,977.16
2022-10-26T16:48:01.985Z,977.16
2022-10-26T16:49:01.987Z,977.21
2022-10-26T16:50:02.038Z,977.19
2022-10-26T16:51:02.087Z,977.22
2022-10-26T16:52:02.170Z,977.21
2022-10-26T16:53:02.222Z,977.22
2022-10-26T16:54:02.236Z,977.22
2022-10-26T16:55:02.289Z,977.22
2022-10-26T16:56:02.334Z,977.21
2022-10-26T16:57:02.419Z,977.22
2022-10-26T16:58:02.437Z,977.21
2022-10-26T16:59:02.486Z,977.23
2022-10-26T17:00:02.534Z,977.23
2022-10-26T17:01:04.331Z,977.22
2022-10-26T17:02:02.843Z,977.20
2022-10-26T17:03:02.684Z,977.22
2022-10-26T17:05:06.035Z,977.26
2022-10-26T17:06:03.268Z,977.25
2022-10-26T17:07:02.904Z,977.31
2022-10-26T17:08:02.979Z,977.30
2022-10-26T17:09:02.978Z,977.31
2022-10-26T17:10:03.030Z,977.30
2022-10-26T17:11:03.079Z,977.33
2022-10-26T17:12:03.126Z,977.35
2022-10-26T17:13:03.209Z,977.42
2022-10-26T17:14:03.223Z,977.40
2022-10-26T17:15:03.319Z,977.44
2022-10-26T17:16:04.052Z,977.45
2022-10-26T17:17:03.374Z,977.49
2022-10-26T17:18:03.425Z,977.46
2022-10-26T17:19:03.472Z,977.52
2022-10-26T17:20:03.552Z,977.52
2022-10-26T17:21:03.604Z,977.53
2022-10-26T17:22:05.148Z,977.56
2022-10-26T17:23:03.675Z,977.57
2022-10-26T17:24:03.721Z,977.61
2022-10-26T17:25:03.776Z,977.59
2022-10-26T17:26:03.847Z,977.62
2022-10-26T17:27:03.872Z,977.62
2022-10-26T17:28:03.949Z,977.62
2022-10-26T17:29:04.029Z,977.63
2022-10-26T17:30:04.014Z,977.67
2022-10-26T17:31:04.072Z,977.64
2022-10-26T17:32:04.119Z,977.66
2022-10-26T17:33:04.189Z,977.70
2022-10-26T17:34:04.248Z,977.71
2022-10-26T17:35:04.296Z,977.68
2022-10-26T17:36:04.318Z,977.68
2022-10-26T17:37:04.371Z,977.71
2022-10-26T17:38:04.414Z,977.71
2022-10-26T17:39:04.463Z,977.73
2022-10-26T17:40:04.571Z,977.71
2022-10-26T17:41:05.557Z,977.77
2022-10-26T17:42:04.614Z,977.76
2022-10-26T17:43:04.660Z,977.74
2022-10-26T17:44:04.711Z,977.76
2022-10-26T17:45:25.812Z,977.77
2022-10-26T17:46:04.811Z,977.76
2022-10-26T17:47:04.858Z,977.79
2022-10-26T17:48:04.908Z,977.78
2022-10-26T17:49:04.957Z,977.80
2022-10-26T17:50:05.035Z,977.82
2022-10-26T17:51:05.056Z,977.82
2022-10-26T17:52:05.105Z,977.82
2022-10-26T17:53:05.180Z,977.84
2022-10-26T17:54:05.327Z,977.83
2022-10-26T17:55:05.251Z,977.85
2022-10-26T17:56:05.325Z,977.84
2022-10-26T17:57:05.347Z,977.83
2022-10-26T17:58:05.395Z,977.87
2022-10-26T17:59:05.480Z,977.88
2022-10-26T18:00:05.528Z,977.90
2022-10-26T18:01:05.641Z,977.92
2022-10-26T18:02:06.676Z,977.96
2022-10-26T18:03:05.649Z,977.95
2022-10-26T18:04:05.692Z,977.98
2022-10-26T18:05:06.923Z,978.01
2022-10-26T18:06:06.751Z,977.97
2022-10-26T18:07:06.282Z,978.00
2022-10-26T18:08:05.891Z,978.00
2022-10-26T18:09:05.947Z,978.03
2022-10-26T18:10:19.608Z,978.01
2022-10-26T18:11:06.039Z,978.05
2022-10-26T18:12:06.123Z,978.05
2022-10-26T18:13:06.141Z,978.09
2022-10-26T18:14:06.223Z,978.05
2022-10-26T18:15:06.235Z,978.08
2022-10-26T18:16:06.287Z,978.12
2022-10-26T18:17:07.066Z,978.13
2022-10-26T18:18:06.400Z,978.09
2022-10-26T18:19:06.482Z,978.12
2022-10-26T18:20:07.068Z,978.14
2022-10-26T18:21:06.527Z,978.17
2022-10-26T18:22:06.577Z,978.20
2022-10-26T18:23:07.576Z,978.18
2022-10-26T18:24:06.721Z,978.17
2022-10-26T18:25:07.573Z,978.21